Mosinee, WI

9:40 AM CDT on July 23, 2016 (GMT -0500)
Central Wisconsin | | Change Station

Elev 1276 ft 44.78 °N, 89.67 °W | Updated 55 minutes ago

Clear
Clear
77 °F
Feels Like 77 °F
N
7
Wind Variable Wind from ENE

Today
High -- | Low -- °F
--% Chance of Precip.
Yesterday
High -- | Low -- °F
Precip. -- in
Pressure 30.02 in
Visibility 10.0 miles
Clouds Clear
Dew Point 68 °F
Humidity 74%
Rainfall 0.00 in
Snow Depth Not available.
5:35 AM 8:34 PM
Waning Gibbous, 85% visible
METAR KCWA 231345Z 07006KT 10SM SKC 25/20 A3002
Pressure 30.02 in
Visibility 10.0 miles
Clouds Clear
Dew Point 68 °F
Humidity 74%
Rainfall 0.00 in
Snow Depth Not available.
5:35 AM 8:34 PM
Waning Gibbous, 85% visible
METAR KCWA 231345Z 07006KT 10SM SKC 25/20 A3002

10-Day Weather Forecast

Almanac

Astronomy

Jul. 23, 2016 Rise Set
Actual Time
Civil Twilight
Nautical Twilight
Astronomical Twilight
Moon
Length of Visible Light
Length of Day
Tomorrow will be .
, % of the Moon is Illuminated

Today's Extremes

State Highs State Lows

Community

WunderPhotos

Upload Photos

1,926,825 photos uploaded!

WunderBlog® & News

Nearby

Air Quality

  Air Quality AQ Index Pollutant
Not available.

Snow Depth

Station Depth Elevation

Earthquake Activity

City Distance Mag. Time & Date
Minimum magnitude displayed is 2.5.

Coastal Water Temperatures

Place Temperature

Stations

Nearby Weather Stations

Station Location Temp. Windchill Dew Point Humidity Wind Precip. Elev Updated Type
                   

Watches & Warnings

There are currently no watches in effect.